sensor_id;sensor_type;location;lat;lon;timestamp;pressure;altitude;pressure_sealevel;temperature;humidity
39739;BME280;25422;48.286;8.484;2023-04-06T00:01:18;94196.69;;;-3.98;100.00
39739;BME280;25422;48.286;8.484;2023-04-06T00:03:43;94197.19;;;-4.07;100.00
39739;BME280;25422;48.286;8.484;2023-04-06T00:06:09;94203.13;;;-4.07;100.00
39739;BME280;25422;48.286;8.484;2023-04-06T00:08:34;94199.50;;;-4.02;100.00
39739;BME280;25422;48.286;8.484;2023-04-06T00:11:00;94195.22;;;-4.02;100.00
39739;BME280;25422;48.286;8.484;2023-04-06T00:13:25;94195.78;;;-4.13;100.00
39739;BME280;25422;48.286;8.484;2023-04-06T00:15:51;94194.13;;;-4.14;100.00
39739;BME280;25422;48.286;8.484;2023-04-06T00:18:16;94189.88;;;-3.97;100.00
39739;BME280;25422;48.286;8.484;2023-04-06T00:20:41;94192.84;;;-4.05;100.00
39739;BME280;25422;48.286;8.484;2023-04-06T00:23:07;94192.16;;;-4.09;100.00
39739;BME280;25422;48.286;8.484;2023-04-06T00:25:32;94189.28;;;-4.18;100.00
39739;BME280;25422;48.286;8.484;2023-04-06T00:27:57;94189.53;;;-4.23;100.00
39739;BME280;25422;48.286;8.484;2023-04-06T00:30:23;94192.50;;;-4.15;100.00
39739;BME280;25422;48.286;8.484;2023-04-06T00:32:49;94195.59;;;-4.10;100.00
39739;BME280;25422;48.286;8.484;2023-04-06T00:35:15;94189.53;;;-4.07;100.00
39739;BME280;25422;48.286;8.484;2023-04-06T00:37:41;94196.19;;;-4.04;100.00
39739;BME280;25422;48.286;8.484;2023-04-06T00:40:07;94187.47;;;-4.00;100.00
39739;BME280;25422;48.286;8.484;2023-04-06T00:42:32;94185.25;;;-4.07;100.00
39739;BME280;25422;48.286;8.484;2023-04-06T00:45:00;94178.97;;;-4.17;100.00
39739;BME280;25422;48.286;8.484;2023-04-06T00:47:25;94176.00;;;-4.25;100.00
39739;BME280;25422;48.286;8.484;2023-04-06T00:49:52;94178.13;;;-4.33;100.00
39739;BME280;25422;48.286;8.484;2023-04-06T00:52:19;94173.19;;;-4.36;100.00
39739;BME280;25422;48.286;8.484;2023-04-06T00:54:46;94177.94;;;-4.46;100.00
39739;BME280;25422;48.286;8.484;2023-04-06T00:57:13;94175.63;;;-4.51;100.00
39739;BME280;25422;48.286;8.484;2023-04-06T00:59:39;94171.31;;;-4.50;100.00
39739;BME280;25422;48.286;8.484;2023-04-06T01:02:08;94174.72;;;-4.50;100.00
39739;BME280;25422;48.286;8.484;2023-04-06T01:04:40;94172.16;;;-4.50;100.00
39739;BME280;25422;48.286;8.484;2023-04-06T01:07:11;94170.16;;;-4.61;100.00
39739;BME280;25422;48.286;8.484;2023-04-06T01:09:43;94163.41;;;-4.62;100.00
39739;BME280;25422;48.286;8.484;2023-04-06T01:12:16;94163.19;;;-4.57;100.00
39739;BME280;25422;48.286;8.484;2023-04-06T01:14:42;94162.75;;;-4.49;100.00
39739;BME280;25422;48.286;8.484;2023-04-06T01:17:08;94156.34;;;-4.57;100.00
39739;BME280;25422;48.286;8.484;2023-04-06T01:19:33;94162.16;;;-4.70;100.00
39739;BME280;25422;48.286;8.484;2023-04-06T01:21:59;94160.50;;;-4.71;100.00
39739;BME280;25422;48.286;8.484;2023-04-06T01:24:31;94156.22;;;-4.71;100.00
39739;BME280;25422;48.286;8.484;2023-04-06T01:27:13;94151.19;;;-4.72;100.00
39739;BME280;25422;48.286;8.484;2023-04-06T01:30:02;94152.69;;;-4.68;100.00
39739;BME280;25422;48.286;8.484;2023-04-06T01:32:41;94146.91;;;-4.72;100.00
39739;BME280;25422;48.286;8.484;2023-04-06T01:35:08;94150.47;;;-4.75;100.00
39739;BME280;25422;48.286;8.484;2023-04-06T01:37:40;94145.91;;;-4.85;100.00
39739;BME280;25422;48.286;8.484;2023-04-06T01:40:09;94150.41;;;-4.91;100.00
39739;BME280;25422;48.286;8.484;2023-04-06T01:42:43;94148.66;;;-4.90;100.00
39739;BME280;25422;48.286;8.484;2023-04-06T01:45:12;94146.34;;;-4.95;100.00
39739;BME280;25422;48.286;8.484;2023-04-06T01:47:38;94136.88;;;-4.93;100.00
39739;BME280;25422;48.286;8.484;2023-04-06T01:50:04;94141.00;;;-4.90;100.00
39739;BME280;25422;48.286;8.484;2023-04-06T01:52:34;94134.31;;;-4.93;100.00
39739;BME280;25422;48.286;8.484;2023-04-06T01:54:59;94142.91;;;-4.94;100.00
39739;BME280;25422;48.286;8.484;2023-04-06T01:57:42;94140.28;;;-4.92;100.00
39739;BME280;25422;48.286;8.484;2023-04-06T02:00:15;94122.16;;;-4.87;100.00
39739;BME280;25422;48.286;8.484;2023-04-06T02:02:47;94130.97;;;-4.93;100.00
39739;BME280;25422;48.286;8.484;2023-04-06T02:05:19;94129.56;;;-4.99;100.00
39739;BME280;25422;48.286;8.484;2023-04-06T02:07:45;94134.94;;;-5.05;100.00
39739;BME280;25422;48.286;8.484;2023-04-06T02:10:15;94139.88;;;-5.02;100.00
39739;BME280;25422;48.286;8.484;2023-04-06T02:12:41;94135.03;;;-5.06;100.00
39739;BME280;25422;48.286;8.484;2023-04-06T02:15:11;94140.13;;;-5.06;100.00
39739;BME280;25422;48.286;8.484;2023-04-06T02:17:38;94130.97;;;-5.11;100.00
39739;BME280;25422;48.286;8.484;2023-04-06T02:20:05;94127.81;;;-5.16;100.00
39739;BME280;25422;48.286;8.484;2023-04-06T02:22:31;94133.78;;;-5.15;100.00
39739;BME280;25422;48.286;8.484;2023-04-06T02:24:56;94129.56;;;-5.16;100.00
39739;BME280;25422;48.286;8.484;2023-04-06T02:27:21;94135.19;;;-5.10;100.00
39739;BME280;25422;48.286;8.484;2023-04-06T02:29:47;94133.81;;;-5.17;100.00
39739;BME280;25422;48.286;8.484;2023-04-06T02:32:14;94131.59;;;-5.23;100.00
39739;BME280;25422;48.286;8.484;2023-04-06T02:34:39;94131.06;;;-5.30;100.00
39739;BME280;25422;48.286;8.484;2023-04-06T02:37:05;94127.53;;;-5.27;100.00
39739;BME280;25422;48.286;8.484;2023-04-06T02:39:30;94120.19;;;-5.33;100.00
39739;BME280;25422;48.286;8.484;2023-04-06T02:41:56;94121.56;;;-5.26;100.00
39739;BME280;25422;48.286;8.484;2023-04-06T02:44:24;94122.19;;;-5.22;100.00
39739;BME280;25422;48.286;8.484;2023-04-06T02:46:49;94119.22;;;-5.31;100.00
39739;BME280;25422;48.286;8.484;2023-04-06T02:49:15;94122.53;;;-5.29;100.00
39739;BME280;25422;48.286;8.484;2023-04-06T02:51:40;94119.66;;;-5.22;100.00
39739;BME280;25422;48.286;8.484;2023-04-06T02:54:23;94116.81;;;-5.16;100.00
39739;BME280;25422;48.286;8.484;2023-04-06T02:56:48;94109.97;;;-5.16;100.00
39739;BME280;25422;48.286;8.484;2023-04-06T02:59:14;94113.50;;;-5.18;100.00
39739;BME280;25422;48.286;8.484;2023-04-06T03:01:46;94121.41;;;-5.23;100.00
39739;BME280;25422;48.286;8.484;2023-04-06T03:04:11;94112.97;;;-5.25;100.00
39739;BME280;25422;48.286;8.484;2023-04-06T03:06:37;94114.97;;;-5.30;100.00
39739;BME280;25422;48.286;8.484;2023-04-06T03:09:13;94102.34;;;-5.33;100.00
39739;BME280;25422;48.286;8.484;2023-04-06T03:11:42;94108.19;;;-5.31;100.00
39739;BME280;25422;48.286;8.484;2023-04-06T03:14:07;94107.75;;;-5.39;100.00
39739;BME280;25422;48.286;8.484;2023-04-06T03:16:33;94107.97;;;-5.44;100.00
39739;BME280;25422;48.286;8.484;2023-04-06T03:19:00;94108.81;;;-5.44;100.00
39739;BME280;25422;48.286;8.484;2023-04-06T03:21:26;94109.09;;;-5.50;100.00
39739;BME280;25422;48.286;8.484;2023-04-06T03:23:52;94109.25;;;-5.53;100.00
39739;BME280;25422;48.286;8.484;2023-04-06T03:26:18;94115.31;;;-5.55;100.00
39739;BME280;25422;48.286;8.484;2023-04-06T03:28:44;94115.16;;;-5.52;100.00
39739;BME280;25422;48.286;8.484;2023-04-06T03:31:09;94118.69;;;-5.55;100.00
39739;BME280;25422;48.286;8.484;2023-04-06T03:34:04;94119.88;;;-5.62;100.00
39739;BME280;25422;48.286;8.484;2023-04-06T03:36:33;94125.25;;;-5.68;100.00
39739;BME280;25422;48.286;8.484;2023-04-06T03:38:59;94121.91;;;-5.69;100.00
39739;BME280;25422;48.286;8.484;2023-04-06T03:41:25;94130.31;;;-5.67;100.00
39739;BME280;25422;48.286;8.484;2023-04-06T03:44:14;94124.25;;;-5.64;100.00
39739;BME280;25422;48.286;8.484;2023-04-06T03:46:40;94117.19;;;-5.59;100.00
39739;BME280;25422;48.286;8.484;2023-04-06T03:49:06;94121.91;;;-5.51;100.00
39739;BME280;25422;48.286;8.484;2023-04-06T03:51:32;94116.38;;;-5.42;100.00
39739;BME280;25422;48.286;8.484;2023-04-06T03:53:57;94125.16;;;-5.48;100.00
39739;BME280;25422;48.286;8.484;2023-04-06T03:56:23;94119.38;;;-5.51;100.00
39739;BME280;25422;48.286;8.484;2023-04-06T03:58:48;94127.09;;;-5.53;100.00
39739;BME280;25422;48.286;8.484;2023-04-06T04:01:19;94125.75;;;-5.60;100.00
39739;BME280;25422;48.286;8.484;2023-04-06T04:03:44;94123.19;;;-5.60;100.00
39739;BME280;25422;48.286;8.484;2023-04-06T04:06:13;94128.50;;;-5.65;100.00
39739;BME280;25422;48.286;8.484;2023-04-06T04:08:40;94129.34;;;-5.64;100.00
39739;BME280;25422;48.286;8.484;2023-04-06T04:11:06;94125.34;;;-5.70;100.00
39739;BME280;25422;48.286;8.484;2023-04-06T04:13:32;94132.44;;;-5.77;100.00
39739;BME280;25422;48.286;8.484;2023-04-06T04:15:58;94129.91;;;-5.77;100.00
39739;BME280;25422;48.286;8.484;2023-04-06T04:18:25;94128.56;;;-5.84;100.00
39739;BME280;25422;48.286;8.484;2023-04-06T04:20:50;94137.41;;;-5.91;100.00
39739;BME280;25422;48.286;8.484;2023-04-06T04:23:19;94136.03;;;-5.98;100.00
39739;BME280;25422;48.286;8.484;2023-04-06T04:25:44;94136.03;;;-5.98;100.00
39739;BME280;25422;48.286;8.484;2023-04-06T04:28:10;94136.78;;;-5.96;100.00
39739;BME280;25422;48.286;8.484;2023-04-06T04:30:37;94135.47;;;-5.86;100.00
39739;BME280;25422;48.286;8.484;2023-04-06T04:33:07;94142.00;;;-5.80;100.00
39739;BME280;25422;48.286;8.484;2023-04-06T04:35:32;94140.19;;;-5.78;100.00
39739;BME280;25422;48.286;8.484;2023-04-06T04:37:58;94136.81;;;-5.79;100.00
39739;BME280;25422;48.286;8.484;2023-04-06T04:40:24;94141.09;;;-5.79;100.00
39739;BME280;25422;48.286;8.484;2023-04-06T04:42:56;94137.09;;;-5.85;100.00
39739;BME280;25422;48.286;8.484;2023-04-06T04:45:27;94142.94;;;-5.83;100.00
39739;BME280;25422;48.286;8.484;2023-04-06T04:47:52;94138.91;;;-5.87;100.00
39739;BME280;25422;48.286;8.484;2023-04-06T04:50:20;94142.81;;;-5.80;100.00
39739;BME280;25422;48.286;8.484;2023-04-06T04:52:48;94140.63;;;-5.70;100.00
39739;BME280;25422;48.286;8.484;2023-04-06T04:55:18;94137.13;;;-5.67;100.00
39739;BME280;25422;48.286;8.484;2023-04-06T04:57:47;94140.28;;;-5.62;100.00
39739;BME280;25422;48.286;8.484;2023-04-06T05:00:13;94152.28;;;-5.64;100.00
39739;BME280;25422;48.286;8.484;2023-04-06T05:02:42;94148.97;;;-5.66;100.00
39739;BME280;25422;48.286;8.484;2023-04-06T05:05:12;94145.66;;;-5.68;100.00
39739;BME280;25422;48.286;8.484;2023-04-06T05:07:39;94149.66;;;-5.63;100.00
39739;BME280;25422;48.286;8.484;2023-04-06T05:10:08;94151.63;;;-5.50;100.00
39739;BME280;25422;48.286;8.484;2023-04-06T05:12:39;94149.69;;;-5.45;100.00
39739;BME280;25422;48.286;8.484;2023-04-06T05:15:07;94150.06;;;-5.35;100.00
39739;BME280;25422;48.286;8.484;2023-04-06T05:17:33;94144.06;;;-5.34;100.00
39739;BME280;25422;48.286;8.484;2023-04-06T05:19:59;94141.88;;;-5.25;100.00
39739;BME280;25422;48.286;8.484;2023-04-06T05:22:26;94148.47;;;-5.03;100.00
39739;BME280;25422;48.286;8.484;2023-04-06T05:25:02;94154.44;;;-4.86;100.00
39739;BME280;25422;48.286;8.484;2023-04-06T05:27:29;94150.31;;;-4.89;100.00
39739;BME280;25422;48.286;8.484;2023-04-06T05:29:58;94146.72;;;-4.85;100.00
39739;BME280;25422;48.286;8.484;2023-04-06T05:32:27;94148.03;;;-4.78;100.00
39739;BME280;25422;48.286;8.484;2023-04-06T05:34:53;94150.75;;;-4.47;100.00
39739;BME280;25422;48.286;8.484;2023-04-06T05:37:18;94154.06;;;-4.29;100.00
39739;BME280;25422;48.286;8.484;2023-04-06T05:39:44;94154.91;;;-4.13;100.00
39739;BME280;25422;48.286;8.484;2023-04-06T05:42:10;94165.13;;;-3.81;100.00
39739;BME280;25422;48.286;8.484;2023-04-06T05:44:56;94162.03;;;-3.56;100.00
39739;BME280;25422;48.286;8.484;2023-04-06T05:47:22;94159.63;;;-3.43;100.00
39739;BME280;25422;48.286;8.484;2023-04-06T05:49:53;94153.00;;;-3.00;100.00
39739;BME280;25422;48.286;8.484;2023-04-06T05:52:30;94162.09;;;-2.80;100.00
39739;BME280;25422;48.286;8.484;2023-04-06T05:54:56;94169.16;;;-2.41;100.00
39739;BME280;25422;48.286;8.484;2023-04-06T05:57:23;94163.06;;;-1.96;100.00
39739;BME280;25422;48.286;8.484;2023-04-06T05:59:49;94165.34;;;-1.92;100.00
39739;BME280;25422;48.286;8.484;2023-04-06T06:02:15;94161.31;;;-1.54;100.00
39739;BME280;25422;48.286;8.484;2023-04-06T06:04:44;94160.44;;;-1.00;100.00
39739;BME280;25422;48.286;8.484;2023-04-06T06:07:09;94163.28;;;-1.05;100.00
39739;BME280;25422;48.286;8.484;2023-04-06T06:09:41;94166.94;;;-0.94;100.00
39739;BME280;25422;48.286;8.484;2023-04-06T06:12:18;94169.72;;;-0.33;100.00
39739;BME280;25422;48.286;8.484;2023-04-06T06:14:46;94167.28;;;-0.22;100.00
39739;BME280;25422;48.286;8.484;2023-04-06T06:17:12;94171.41;;;0.18;100.00
39739;BME280;25422;48.286;8.484;2023-04-06T06:19:39;94174.97;;;0.65;100.00
39739;BME280;25422;48.286;8.484;2023-04-06T06:22:06;94178.19;;;0.56;100.00
39739;BME280;25422;48.286;8.484;2023-04-06T06:24:35;94170.72;;;0.89;100.00
39739;BME280;25422;48.286;8.484;2023-04-06T06:27:01;94171.75;;;1.10;100.00
39739;BME280;25422;48.286;8.484;2023-04-06T06:29:31;94178.03;;;1.42;100.00
39739;BME280;25422;48.286;8.484;2023-04-06T06:31:58;94170.81;;;1.81;100.00
39739;BME280;25422;48.286;8.484;2023-04-06T06:34:23;94170.63;;;2.62;98.04
39739;BME280;25422;48.286;8.484;2023-04-06T06:36:49;94172.25;;;2.74;94.32
39739;BME280;25422;48.286;8.484;2023-04-06T06:39:16;94161.97;;;3.59;84.97
39739;BME280;25422;48.286;8.484;2023-04-06T06:41:42;94169.53;;;4.33;79.33
39739;BME280;25422;48.286;8.484;2023-04-06T06:44:08;94166.06;;;4.13;74.36
39739;BME280;25422;48.286;8.484;2023-04-06T06:46:34;94166.53;;;4.88;71.86
39739;BME280;25422;48.286;8.484;2023-04-06T06:48:59;94165.09;;;5.63;65.60
39739;BME280;25422;48.286;8.484;2023-04-06T06:51:25;94168.69;;;5.62;66.25
39739;BME280;25422;48.286;8.484;2023-04-06T06:53:51;94178.03;;;6.02;63.35
39739;BME280;25422;48.286;8.484;2023-04-06T06:56:16;94177.28;;;5.62;62.20
39739;BME280;25422;48.286;8.484;2023-04-06T06:58:42;94168.25;;;5.66;63.00
39739;BME280;25422;48.286;8.484;2023-04-06T07:01:08;94172.69;;;6.69;59.61
39739;BME280;25422;48.286;8.484;2023-04-06T07:03:34;94176.97;;;6.60;58.82
39739;BME280;25422;48.286;8.484;2023-04-06T07:05:59;94164.91;;;6.87;56.68
39739;BME280;25422;48.286;8.484;2023-04-06T07:08:25;94170.94;;;7.23;56.71
39739;BME280;25422;48.286;8.484;2023-04-06T07:10:51;94169.28;;;7.85;54.64
39739;BME280;25422;48.286;8.484;2023-04-06T07:13:23;94157.28;;;7.92;54.27
39739;BME280;25422;48.286;8.484;2023-04-06T07:15:51;94159.72;;;7.67;52.68
39739;BME280;25422;48.286;8.484;2023-04-06T07:18:18;94162.00;;;8.49;52.17
39739;BME280;25422;48.286;8.484;2023-04-06T07:20:44;94164.50;;;8.59;51.62
39739;BME280;25422;48.286;8.484;2023-04-06T07:23:10;94161.38;;;9.15;51.18
39739;BME280;25422;48.286;8.484;2023-04-06T07:25:35;94159.59;;;9.81;49.09
39739;BME280;25422;48.286;8.484;2023-04-06T07:28:02;94165.44;;;9.91;47.53
39739;BME280;25422;48.286;8.484;2023-04-06T07:30:28;94171.94;;;10.20;46.64
39739;BME280;25422;48.286;8.484;2023-04-06T07:32:54;94169.91;;;10.87;44.46
39739;BME280;25422;48.286;8.484;2023-04-06T07:35:26;94168.84;;;12.12;42.71
39739;BME280;25422;48.286;8.484;2023-04-06T07:37:53;94165.88;;;12.15;42.00
39739;BME280;25422;48.286;8.484;2023-04-06T07:40:18;94168.31;;;12.61;41.70
39739;BME280;25422;48.286;8.484;2023-04-06T07:42:45;94169.00;;;13.00;41.59
39739;BME280;25422;48.286;8.484;2023-04-06T07:45:10;94176.34;;;12.90;41.56
39739;BME280;25422;48.286;8.484;2023-04-06T07:47:36;94173.59;;;13.49;39.62
39739;BME280;25422;48.286;8.484;2023-04-06T07:50:02;94175.59;;;13.91;39.61
39739;BME280;25422;48.286;8.484;2023-04-06T07:52:28;94174.84;;;13.54;38.17
39739;BME280;25422;48.286;8.484;2023-04-06T07:54:54;94174.34;;;14.78;37.58
39739;BME280;25422;48.286;8.484;2023-04-06T07:57:19;94172.28;;;14.39;35.98
39739;BME280;25422;48.286;8.484;2023-04-06T07:59:45;94183.09;;;14.86;34.24
39739;BME280;25422;48.286;8.484;2023-04-06T08:02:10;94163.97;;;14.42;34.55
39739;BME280;25422;48.286;8.484;2023-04-06T08:04:36;94172.63;;;14.99;34.71
39739;BME280;25422;48.286;8.484;2023-04-06T08:07:01;94173.88;;;15.16;33.31
39739;BME280;25422;48.286;8.484;2023-04-06T08:09:26;94162.47;;;16.18;32.07
39739;BME280;25422;48.286;8.484;2023-04-06T08:11:52;94164.38;;;14.39;32.42
39739;BME280;25422;48.286;8.484;2023-04-06T08:14:18;94165.72;;;12.98;31.63
39739;BME280;25422;48.286;8.484;2023-04-06T08:16:43;94159.56;;;14.14;29.84
39739;BME280;25422;48.286;8.484;2023-04-06T08:19:08;94159.66;;;12.31;35.21
39739;BME280;25422;48.286;8.484;2023-04-06T08:21:37;94163.88;;;12.02;34.42
39739;BME280;25422;48.286;8.484;2023-04-06T08:24:03;94162.41;;;11.61;34.70
39739;BME280;25422;48.286;8.484;2023-04-06T08:26:28;94163.44;;;13.10;33.87
39739;BME280;25422;48.286;8.484;2023-04-06T08:28:54;94174.03;;;12.35;33.52
39739;BME280;25422;48.286;8.484;2023-04-06T08:31:19;94160.31;;;11.95;32.90
39739;BME280;25422;48.286;8.484;2023-04-06T08:33:45;94169.59;;;11.82;32.92
39739;BME280;25422;48.286;8.484;2023-04-06T08:36:12;94177.03;;;10.70;34.35
39739;BME280;25422;48.286;8.484;2023-04-06T08:38:38;94172.97;;;9.45;35.19
39739;BME280;25422;48.286;8.484;2023-04-06T08:41:12;94168.72;;;9.93;34.32
39739;BME280;25422;48.286;8.484;2023-04-06T08:43:42;94166.44;;;9.82;33.72
39739;BME280;25422;48.286;8.484;2023-04-06T08:46:09;94180.59;;;10.12;34.23
39739;BME280;25422;48.286;8.484;2023-04-06T08:48:36;94175.69;;;10.26;35.19
39739;BME280;25422;48.286;8.484;2023-04-06T08:51:01;94176.50;;;10.18;34.59
39739;BME280;25422;48.286;8.484;2023-04-06T08:53:27;94170.84;;;9.65;35.08
39739;BME280;25422;48.286;8.484;2023-04-06T08:55:54;94168.88;;;9.59;33.85
39739;BME280;25422;48.286;8.484;2023-04-06T08:58:21;94166.59;;;9.81;35.52
39739;BME280;25422;48.286;8.484;2023-04-06T09:00:47;94173.03;;;10.34;33.94
39739;BME280;25422;48.286;8.484;2023-04-06T09:03:13;94175.50;;;10.36;35.22
39739;BME280;25422;48.286;8.484;2023-04-06T09:05:39;94171.44;;;10.17;37.12
39739;BME280;25422;48.286;8.484;2023-04-06T09:08:05;94168.38;;;9.96;36.17
39739;BME280;25422;48.286;8.484;2023-04-06T09:10:32;94167.75;;;9.53;35.93
39739;BME280;25422;48.286;8.484;2023-04-06T09:13:07;94174.78;;;9.36;35.92
39739;BME280;25422;48.286;8.484;2023-04-06T09:15:33;94172.75;;;9.05;36.77
39739;BME280;25422;48.286;8.484;2023-04-06T09:17:59;94170.19;;;9.22;37.57
39739;BME280;25422;48.286;8.484;2023-04-06T09:20:25;94175.22;;;9.07;37.80
39739;BME280;25422;48.286;8.484;2023-04-06T09:22:52;94174.66;;;8.87;37.67
39739;BME280;25422;48.286;8.484;2023-04-06T09:25:21;94171.44;;;8.93;37.66
39739;BME280;25422;48.286;8.484;2023-04-06T09:27:48;94171.19;;;9.37;36.74
39739;BME280;25422;48.286;8.484;2023-04-06T09:30:22;94165.13;;;9.61;37.21
39739;BME280;25422;48.286;8.484;2023-04-06T09:32:54;94167.44;;;9.56;35.89
39739;BME280;25422;48.286;8.484;2023-04-06T09:35:20;94168.19;;;9.07;36.15
39739;BME280;25422;48.286;8.484;2023-04-06T09:37:49;94164.94;;;9.05;35.56
39739;BME280;25422;48.286;8.484;2023-04-06T09:40:15;94167.22;;;9.17;35.08
39739;BME280;25422;48.286;8.484;2023-04-06T09:42:48;94173.13;;;10.97;33.15
39739;BME280;25422;48.286;8.484;2023-04-06T09:45:14;94157.91;;;11.01;31.41
39739;BME280;25422;48.286;8.484;2023-04-06T09:47:43;94163.56;;;11.12;33.17
39739;BME280;25422;48.286;8.484;2023-04-06T09:50:10;94156.19;;;10.85;35.55
39739;BME280;25422;48.286;8.484;2023-04-06T09:52:56;94157.88;;;10.29;34.58
39739;BME280;25422;48.286;8.484;2023-04-06T09:55:30;94155.78;;;10.00;36.23
39739;BME280;25422;48.286;8.484;2023-04-06T09:58:05;94155.09;;;10.15;34.89
39739;BME280;25422;48.286;8.484;2023-04-06T10:00:34;94149.25;;;10.04;34.44
39739;BME280;25422;48.286;8.484;2023-04-06T10:03:22;94149.03;;;11.71;33.86
39739;BME280;25422;48.286;8.484;2023-04-06T10:05:55;94153.78;;;12.14;34.24
39739;BME280;25422;48.286;8.484;2023-04-06T10:08:25;94151.25;;;13.24;34.52
39739;BME280;25422;48.286;8.484;2023-04-06T10:10:54;94152.19;;;11.43;32.63
39739;BME280;25422;48.286;8.484;2023-04-06T10:13:20;94158.22;;;10.74;35.01
39739;BME280;25422;48.286;8.484;2023-04-06T10:15:46;94163.56;;;10.25;35.05
39739;BME280;25422;48.286;8.484;2023-04-06T10:18:12;94151.94;;;9.71;34.71
39739;BME280;25422;48.286;8.484;2023-04-06T10:20:46;94153.16;;;10.08;35.91
39739;BME280;25422;48.286;8.484;2023-04-06T10:26:13;94155.81;;;9.59;35.77
39739;BME280;25422;48.286;8.484;2023-04-06T10:28:41;94153.72;;;9.38;37.08
39739;BME280;25422;48.286;8.484;2023-04-06T10:31:07;94156.81;;;9.41;36.69
39739;BME280;25422;48.286;8.484;2023-04-06T10:33:33;94149.31;;;9.63;38.05
39739;BME280;25422;48.286;8.484;2023-04-06T10:36:09;94153.53;;;9.23;36.94
39739;BME280;25422;48.286;8.484;2023-04-06T10:38:37;94145.25;;;8.25;38.33
39739;BME280;25422;48.286;8.484;2023-04-06T10:41:06;94153.34;;;8.49;39.08
39739;BME280;25422;48.286;8.484;2023-04-06T10:43:37;94152.38;;;9.01;38.58
39739;BME280;25422;48.286;8.484;2023-04-06T10:46:04;94148.59;;;8.95;37.11
39739;BME280;25422;48.286;8.484;2023-04-06T10:48:45;94146.34;;;9.08;37.51
39739;BME280;25422;48.286;8.484;2023-04-06T10:51:13;94153.22;;;9.34;37.70
39739;BME280;25422;48.286;8.484;2023-04-06T10:53:41;94143.59;;;9.26;35.34
39739;BME280;25422;48.286;8.484;2023-04-06T10:56:11;94144.25;;;9.37;34.75
39739;BME280;25422;48.286;8.484;2023-04-06T10:58:37;94140.81;;;9.11;35.06
39739;BME280;25422;48.286;8.484;2023-04-06T11:01:02;94143.72;;;9.00;34.37
39739;BME280;25422;48.286;8.484;2023-04-06T11:03:28;94146.38;;;9.41;35.75
39739;BME280;25422;48.286;8.484;2023-04-06T11:05:54;94142.03;;;10.23;30.56
39739;BME280;25422;48.286;8.484;2023-04-06T11:08:29;94136.19;;;9.96;32.05
39739;BME280;25422;48.286;8.484;2023-04-06T11:11:09;94133.13;;;9.18;33.09
39739;BME280;25422;48.286;8.484;2023-04-06T11:16:04;94131.34;;;9.19;35.49
39739;BME280;25422;48.286;8.484;2023-04-06T11:18:29;94133.31;;;9.41;36.14
39739;BME280;25422;48.286;8.484;2023-04-06T11:20:55;94136.88;;;9.82;35.59
39739;BME280;25422;48.286;8.484;2023-04-06T11:23:25;94129.56;;;10.33;32.79
39739;BME280;25422;48.286;8.484;2023-04-06T11:25:52;94126.63;;;10.36;33.04
39739;BME280;25422;48.286;8.484;2023-04-06T11:28:18;94120.69;;;10.51;33.43
39739;BME280;25422;48.286;8.484;2023-04-06T11:30:45;94128.34;;;10.04;33.09
39739;BME280;25422;48.286;8.484;2023-04-06T11:33:10;94116.66;;;9.75;33.56
39739;BME280;25422;48.286;8.484;2023-04-06T11:35:36;94109.44;;;9.77;34.75
39739;BME280;25422;48.286;8.484;2023-04-06T11:38:03;94115.97;;;9.82;33.79
39739;BME280;25422;48.286;8.484;2023-04-06T11:40:29;94111.75;;;9.48;33.86
39739;BME280;25422;48.286;8.484;2023-04-06T11:42:55;94107.50;;;9.55;32.83
39739;BME280;25422;48.286;8.484;2023-04-06T11:45:21;94108.22;;;10.13;33.66
39739;BME280;25422;48.286;8.484;2023-04-06T11:47:57;94109.09;;;9.97;32.74
39739;BME280;25422;48.286;8.484;2023-04-06T11:50:24;94111.91;;;10.75;31.93
39739;BME280;25422;48.286;8.484;2023-04-06T11:52:58;94113.06;;;10.72;33.04
39739;BME280;25422;48.286;8.484;2023-04-06T11:55:28;94107.72;;;10.89;32.28
39739;BME280;25422;48.286;8.484;2023-04-06T11:57:53;94102.75;;;11.02;30.51
39739;BME280;25422;48.286;8.484;2023-04-06T12:00:20;94104.81;;;11.07;30.03
39739;BME280;25422;48.286;8.484;2023-04-06T12:02:46;94105.13;;;11.12;33.31
39739;BME280;25422;48.286;8.484;2023-04-06T12:05:12;94102.94;;;11.62;32.12
39739;BME280;25422;48.286;8.484;2023-04-06T12:07:37;94103.56;;;12.32;30.18
39739;BME280;25422;48.286;8.484;2023-04-06T12:10:03;94100.06;;;11.34;30.60
39739;BME280;25422;48.286;8.484;2023-04-06T12:12:29;94102.59;;;10.33;34.53
39739;BME280;25422;48.286;8.484;2023-04-06T12:14:55;94104.81;;;10.84;32.85
39739;BME280;25422;48.286;8.484;2023-04-06T12:17:20;94104.56;;;11.63;32.46
39739;BME280;25422;48.286;8.484;2023-04-06T12:19:46;94106.03;;;12.85;31.09
39739;BME280;25422;48.286;8.484;2023-04-06T12:22:11;94103.31;;;14.15;29.10
39739;BME280;25422;48.286;8.484;2023-04-06T12:24:37;94109.19;;;14.52;27.49
39739;BME280;25422;48.286;8.484;2023-04-06T12:27:02;94093.44;;;15.14;26.52
39739;BME280;25422;48.286;8.484;2023-04-06T12:29:28;94095.88;;;15.29;28.46
39739;BME280;25422;48.286;8.484;2023-04-06T12:31:53;94093.31;;;13.04;29.44
39739;BME280;25422;48.286;8.484;2023-04-06T12:34:19;94094.78;;;12.55;29.76
39739;BME280;25422;48.286;8.484;2023-04-06T12:36:44;94091.22;;;11.73;28.71
39739;BME280;25422;48.286;8.484;2023-04-06T12:39:12;94091.88;;;11.37;30.72
39739;BME280;25422;48.286;8.484;2023-04-06T12:41:37;94086.34;;;11.70;30.03
39739;BME280;25422;48.286;8.484;2023-04-06T12:44:06;94089.31;;;11.67;31.37
39739;BME280;25422;48.286;8.484;2023-04-06T12:46:31;94080.91;;;12.97;28.57
39739;BME280;25422;48.286;8.484;2023-04-06T12:48:57;94078.31;;;13.41;26.78
39739;BME280;25422;48.286;8.484;2023-04-06T12:51:27;94082.44;;;13.78;26.85
39739;BME280;25422;48.286;8.484;2023-04-06T12:53:52;94074.91;;;12.16;27.71
39739;BME280;25422;48.286;8.484;2023-04-06T12:56:18;94085.81;;;12.34;30.25
39739;BME280;25422;48.286;8.484;2023-04-06T12:58:44;94076.34;;;13.49;27.45
39739;BME280;25422;48.286;8.484;2023-04-06T13:01:10;94076.94;;;12.87;28.03
39739;BME280;25422;48.286;8.484;2023-04-06T13:03:38;94079.03;;;13.85;26.76
39739;BME280;25422;48.286;8.484;2023-04-06T13:06:04;94078.19;;;12.69;28.08